createdAt,value
2019-02-10T00:02:54.790Z,3.47
2019-02-10T00:06:02.353Z,3.47
2019-02-10T00:09:09.527Z,3.40
2019-02-10T00:12:17.137Z,3.43
2019-02-10T00:15:24.396Z,3.41
2019-02-10T00:18:32.019Z,3.35
2019-02-10T00:21:39.406Z,3.55
2019-02-10T00:24:47.162Z,3.46
2019-02-10T00:27:54.610Z,3.47
2019-02-10T00:31:01.981Z,3.46
2019-02-10T00:34:09.603Z,3.50
2019-02-10T00:37:17.302Z,3.48
2019-02-10T00:40:24.801Z,3.35
2019-02-10T00:43:32.215Z,3.21
2019-02-10T00:46:39.581Z,3.27
2019-02-10T00:49:46.983Z,3.24
2019-02-10T00:52:54.372Z,3.30
2019-02-10T00:56:01.641Z,3.18
2019-02-10T00:59:09.285Z,3.04
2019-02-10T01:02:16.627Z,3.07
2019-02-10T01:05:24.215Z,3.19
2019-02-10T01:08:31.494Z,3.04
2019-02-10T01:12:06.755Z,2.95
2019-02-10T01:15:24.241Z,3.21
2019-02-10T01:18:40.848Z,3.07
2019-02-10T01:22:10.537Z,2.70
2019-02-10T01:25:33.774Z,2.57
2019-02-10T01:28:52.702Z,2.60
2019-02-10T01:32:01.900Z,2.66
2019-02-10T01:35:13.434Z,2.42
2019-02-10T01:38:40.792Z,2.24
2019-02-10T01:42:02.832Z,2.15
2019-02-10T01:45:46.547Z,2.08
2019-02-10T01:48:56.296Z,2.01
2019-02-10T01:55:12.610Z,1.89
2019-02-10T01:58:20.227Z,1.82
2019-02-10T02:01:27.435Z,1.81
2019-02-10T02:04:34.882Z,1.82
2019-02-10T02:07:42.723Z,1.71
2019-02-10T02:10:50.136Z,1.61
2019-02-10T02:13:57.510Z,1.69
2019-02-10T02:17:05.123Z,1.67
2019-02-10T02:20:12.837Z,1.64
2019-02-10T02:23:20.292Z,1.50
2019-02-10T02:26:28.032Z,1.44
2019-02-10T02:29:35.324Z,1.52
2019-02-10T02:32:43.109Z,1.49
2019-02-10T02:35:50.691Z,1.64
2019-02-10T02:38:58.009Z,1.67
2019-02-10T02:42:05.188Z,1.70
2019-02-10T02:45:12.680Z,1.67
2019-02-10T02:48:19.937Z,1.62
2019-02-10T02:51:27.129Z,1.61
2019-02-10T02:54:34.351Z,1.63
2019-02-10T02:57:41.663Z,1.66
2019-02-10T03:00:48.847Z,1.81
2019-02-10T03:03:56.206Z,1.89
2019-02-10T03:07:03.772Z,1.97
2019-02-10T03:10:11.221Z,1.94
2019-02-10T03:13:18.448Z,1.85
2019-02-10T03:16:25.887Z,1.51
2019-02-10T03:19:33.053Z,1.47
2019-02-10T03:22:40.221Z,1.41
2019-02-10T03:25:47.492Z,1.50
2019-02-10T03:28:54.940Z,1.63
2019-02-10T03:32:02.367Z,1.66
2019-02-10T03:35:09.939Z,1.64
2019-02-10T03:38:17.102Z,1.76
2019-02-10T03:41:24.642Z,1.82
2019-02-10T03:44:32.068Z,1.93
2019-02-10T03:47:39.489Z,2.03
2019-02-10T03:50:46.974Z,2.00
2019-02-10T03:53:54.231Z,2.07
2019-02-10T03:57:01.846Z,2.02
2019-02-10T04:00:09.326Z,2.04
2019-02-10T04:03:16.897Z,2.02
2019-02-10T04:06:24.701Z,2.08
2019-02-10T04:09:32.180Z,2.03
2019-02-10T04:12:39.597Z,2.02
2019-02-10T04:15:46.824Z,2.03
2019-02-10T04:18:54.383Z,2.07
2019-02-10T04:22:01.675Z,2.10
2019-02-10T04:25:09.386Z,2.13
2019-02-10T04:28:16.664Z,1.83
2019-02-10T04:31:23.940Z,1.83
2019-02-10T04:34:31.149Z,1.88
2019-02-10T04:37:45.472Z,1.90
2019-02-10T04:40:47.799Z,1.93
2019-02-10T04:43:54.958Z,2.03
2019-02-10T04:47:02.122Z,2.22
2019-02-10T04:50:09.749Z,1.99
2019-02-10T04:53:17.247Z,2.27
2019-02-10T04:56:24.399Z,1.95
2019-02-10T04:59:32.411Z,2.02
2019-02-10T05:02:40.288Z,2.07
2019-02-10T05:05:47.749Z,1.90
2019-02-10T05:08:54.949Z,1.88
2019-02-10T05:12:02.129Z,2.02
2019-02-10T05:15:09.427Z,2.09
2019-02-10T05:18:17.416Z,2.13
2019-02-10T05:21:24.852Z,2.11
2019-02-10T05:24:32.045Z,2.18
2019-02-10T05:27:39.200Z,2.17
2019-02-10T05:30:46.356Z,2.37
2019-02-10T05:33:53.538Z,2.36
2019-02-10T05:37:01.104Z,2.36
2019-02-10T05:40:08.495Z,2.37
2019-02-10T05:43:15.655Z,2.37
2019-02-10T05:46:22.846Z,2.44
2019-02-10T05:49:30.087Z,2.43
2019-02-10T05:52:37.546Z,2.45
2019-02-10T05:55:45.113Z,2.52
2019-02-10T05:58:52.512Z,2.41
2019-02-10T06:02:08.374Z,2.27
2019-02-10T06:05:23.086Z,2.26
2019-02-10T06:08:31.073Z,2.16
2019-02-10T06:11:38.242Z,2.09
2019-02-10T06:14:45.657Z,2.45
2019-02-10T06:17:52.998Z,2.11
2019-02-10T06:21:00.277Z,1.88
2019-02-10T06:24:07.444Z,1.67
2019-02-10T06:27:15.331Z,1.66
2019-02-10T06:30:22.834Z,1.82
2019-02-10T06:33:30.444Z,1.61
2019-02-10T06:36:37.934Z,1.67
2019-02-10T06:39:45.424Z,1.34
2019-02-10T06:42:52.639Z,1.25
2019-02-10T06:46:00.093Z,1.19
2019-02-10T06:49:07.424Z,1.20
2019-02-10T06:52:14.995Z,1.23
2019-02-10T06:55:22.155Z,1.27
2019-02-10T06:58:29.946Z,1.24
2019-02-10T07:01:50.753Z,1.34
2019-02-10T07:04:58.329Z,1.43
2019-02-10T07:08:05.875Z,1.63
2019-02-10T07:11:13.030Z,1.67
2019-02-10T07:14:33.211Z,1.81
2019-02-10T07:18:44.651Z,2.01
2019-02-10T07:21:52.455Z,2.19
2019-02-10T07:25:50.857Z,2.37
2019-02-10T07:29:54.469Z,2.73
2019-02-10T07:33:07.335Z,3.23
2019-02-10T07:36:31.933Z,3.66
2019-02-10T07:40:46.981Z,3.80
2019-02-10T07:44:37.833Z,3.95
2019-02-10T07:48:45.084Z,3.73
2019-02-10T07:53:08.092Z,4.14
2019-02-10T07:57:12.883Z,4.23
2019-02-10T08:00:32.950Z,4.40
2019-02-10T08:04:39.615Z,4.62
2019-02-10T08:08:46.645Z,4.89
2019-02-10T08:12:30.131Z,5.22
2019-02-10T08:16:27.929Z,5.59
2019-02-10T08:20:25.126Z,6.36
2019-02-10T08:23:59.417Z,6.99
2019-02-10T08:27:40.249Z,7.58
2019-02-10T08:31:27.609Z,8.33
2019-02-10T08:35:27.394Z,7.42
2019-02-10T08:39:14.207Z,7.54
2019-02-10T08:43:33.718Z,8.03
2019-02-10T08:48:09.491Z,8.27
2019-02-10T08:52:05.984Z,7.64
2019-02-10T08:55:13.353Z,6.03
2019-02-10T08:58:20.788Z,6.17
2019-02-10T09:01:27.963Z,7.14
2019-02-10T09:04:35.119Z,7.55
2019-02-10T09:07:42.631Z,8.09
2019-02-10T09:10:50.891Z,6.92
2019-02-10T09:13:58.166Z,7.07
2019-02-10T09:17:05.569Z,7.39
2019-02-10T09:20:13.134Z,7.76
2019-02-10T09:23:21.170Z,8.37
2019-02-10T09:26:28.520Z,8.95
2019-02-10T09:29:36.005Z,9.37
2019-02-10T09:32:43.990Z,9.25
2019-02-10T09:35:51.451Z,9.51
2019-02-10T09:38:59.028Z,9.71
2019-02-10T09:42:06.555Z,9.89
2019-02-10T09:45:14.145Z,9.87
2019-02-10T09:48:21.603Z,10.13
2019-02-10T09:51:29.752Z,10.07
2019-02-10T09:54:38.234Z,10.24
2019-02-10T09:57:47.089Z,10.02
2019-02-10T10:00:56.153Z,10.01
2019-02-10T10:04:03.609Z,9.79
2019-02-10T10:07:11.939Z,9.75
2019-02-10T10:10:19.379Z,9.81
2019-02-10T10:13:26.833Z,9.64
2019-02-10T10:16:33.988Z,9.39
2019-02-10T10:19:41.147Z,9.23
2019-02-10T10:23:08.395Z,9.42
2019-02-10T10:26:15.769Z,9.63
2019-02-10T10:29:22.935Z,9.92
2019-02-10T10:32:30.304Z,10.20
2019-02-10T10:35:37.580Z,10.51
2019-02-10T10:38:44.795Z,10.47
2019-02-10T10:41:51.952Z,10.75
2019-02-10T10:44:59.134Z,11.04
2019-02-10T10:48:06.705Z,10.92
2019-02-10T10:51:13.905Z,11.18
2019-02-10T10:54:21.455Z,11.14
2019-02-10T10:57:29.148Z,11.06
2019-02-10T11:00:36.847Z,10.87
2019-02-10T11:03:44.529Z,10.80
2019-02-10T11:06:52.202Z,10.92
2019-02-10T11:09:59.656Z,11.02
2019-02-10T11:13:07.588Z,11.17
2019-02-10T11:16:14.848Z,11.22
2019-02-10T11:19:22.493Z,11.35
2019-02-10T11:22:30.314Z,11.52
2019-02-10T11:25:37.932Z,11.93
2019-02-10T11:28:45.304Z,12.37
2019-02-10T11:31:52.664Z,12.54
2019-02-10T11:35:00.351Z,12.66
2019-02-10T11:38:07.657Z,12.88
2019-02-10T11:41:14.923Z,12.78
2019-02-10T11:44:22.861Z,12.62
2019-02-10T11:47:30.355Z,12.36
2019-02-10T11:50:38.783Z,12.14
2019-02-10T11:53:46.895Z,12.37
2019-02-10T11:56:54.790Z,12.27
2019-02-10T12:00:03.200Z,12.08
2019-02-10T12:03:10.613Z,12.02
2019-02-10T12:06:18.719Z,11.97
2019-02-10T12:09:26.407Z,11.46
2019-02-10T12:12:33.561Z,11.29
2019-02-10T12:15:40.750Z,11.16
2019-02-10T12:18:48.693Z,11.42
2019-02-10T12:21:56.103Z,11.59
2019-02-10T12:25:04.568Z,11.79
2019-02-10T12:28:11.902Z,11.88
2019-02-10T12:31:20.130Z,12.26
2019-02-10T12:34:27.561Z,12.30
2019-02-10T12:37:35.954Z,12.43
2019-02-10T12:40:44.767Z,12.62
2019-02-10T12:43:52.452Z,12.76
2019-02-10T12:46:59.991Z,12.96
2019-02-10T12:50:09.327Z,13.21
2019-02-10T12:53:18.071Z,13.39
2019-02-10T12:56:25.802Z,13.33
2019-02-10T12:59:33.818Z,13.32
2019-02-10T13:02:41.574Z,13.31
2019-02-10T13:05:49.220Z,13.35
2019-02-10T13:08:56.603Z,13.64
2019-02-10T13:12:04.027Z,13.54
2019-02-10T13:15:12.213Z,13.44
2019-02-10T13:18:20.083Z,13.25
2019-02-10T13:21:28.174Z,12.98
2019-02-10T13:24:35.351Z,12.85
2019-02-10T13:27:42.778Z,12.88
2019-02-10T13:30:50.124Z,12.99
2019-02-10T13:33:58.018Z,12.99
2019-02-10T13:37:05.791Z,13.02
2019-02-10T13:40:16.930Z,12.96
2019-02-10T13:43:24.622Z,12.86
2019-02-10T13:46:32.054Z,12.87
2019-02-10T13:49:40.074Z,12.95
2019-02-10T13:52:48.237Z,13.03
2019-02-10T13:55:56.415Z,13.23
2019-02-10T13:59:03.863Z,13.37
2019-02-10T14:02:11.847Z,13.58
2019-02-10T14:05:19.452Z,13.74
2019-02-10T14:08:27.032Z,13.71
2019-02-10T14:11:34.802Z,13.60
2019-02-10T14:14:42.319Z,13.45
2019-02-10T14:17:50.149Z,13.72
2019-02-10T14:20:57.553Z,14.07
2019-02-10T14:24:05.905Z,14.25
2019-02-10T14:27:13.750Z,14.47
2019-02-10T14:30:22.191Z,14.67
2019-02-10T14:33:29.713Z,14.67
2019-02-10T14:36:37.037Z,14.07
2019-02-10T14:39:44.294Z,13.64
2019-02-10T14:42:52.032Z,13.38
2019-02-10T14:45:59.398Z,13.26
2019-02-10T14:49:06.842Z,13.02
2019-02-10T14:52:14.366Z,12.89
2019-02-10T14:55:22.134Z,12.87
2019-02-10T14:58:30.036Z,12.78
2019-02-10T15:01:37.639Z,12.59
2019-02-10T15:04:45.203Z,12.68
2019-02-10T15:07:53.183Z,12.70
2019-02-10T15:11:00.673Z,12.55
2019-02-10T15:14:08.374Z,12.44
2019-02-10T15:17:15.585Z,12.22
2019-02-10T15:20:23.358Z,11.76
2019-02-10T15:23:30.895Z,11.69
2019-02-10T15:26:38.435Z,11.55
2019-02-10T15:29:46.483Z,11.49
2019-02-10T15:32:53.758Z,11.33
2019-02-10T15:36:01.733Z,11.15
2019-02-10T15:39:09.369Z,11.45
2019-02-10T15:42:17.042Z,11.62
2019-02-10T15:45:24.245Z,11.57
2019-02-10T15:48:31.527Z,11.62
2019-02-10T15:51:39.728Z,11.50
2019-02-10T15:54:47.225Z,11.46
2019-02-10T15:57:54.749Z,11.26
2019-02-10T16:01:01.909Z,11.09
2019-02-10T16:04:09.404Z,10.77
2019-02-10T16:07:16.832Z,10.35
2019-02-10T16:10:25.519Z,9.94
2019-02-10T16:13:33.329Z,9.68
2019-02-10T16:16:40.889Z,9.75
2019-02-10T16:19:48.139Z,9.93
2019-02-10T16:22:55.445Z,10.25
2019-02-10T16:26:03.844Z,10.40
2019-02-10T16:29:11.651Z,10.28
2019-02-10T16:32:19.245Z,9.84
2019-02-10T16:35:27.336Z,9.45
2019-02-10T16:38:35.508Z,9.38
2019-02-10T16:41:43.506Z,9.17
2019-02-10T16:44:51.356Z,9.30
2019-02-10T16:47:58.892Z,9.51
2019-02-10T16:51:06.410Z,9.59
2019-02-10T16:54:24.100Z,9.63
2019-02-10T16:57:32.019Z,9.59
2019-02-10T17:00:39.520Z,9.91
2019-02-10T17:03:47.208Z,9.90
2019-02-10T17:06:54.763Z,9.68
2019-02-10T17:10:02.293Z,9.54
2019-02-10T17:13:10.205Z,9.26
2019-02-10T17:16:18.318Z,9.62
2019-02-10T17:19:25.923Z,9.79
2019-02-10T17:22:33.908Z,9.57
2019-02-10T17:25:41.444Z,9.39
2019-02-10T17:28:49.211Z,9.26
2019-02-10T17:31:57.549Z,9.15
2019-02-10T17:35:06.262Z,8.87
2019-02-10T17:38:13.882Z,8.71
2019-02-10T17:41:36.332Z,8.55
2019-02-10T17:44:43.874Z,8.47
2019-02-10T17:47:51.420Z,8.23
2019-02-10T17:50:59.014Z,8.23
2019-02-10T17:54:06.281Z,8.53
2019-02-10T17:57:13.807Z,8.68
2019-02-10T18:00:24.024Z,8.88
2019-02-10T18:03:31.851Z,8.74
2019-02-10T18:06:39.360Z,8.52
2019-02-10T18:09:47.654Z,8.51
2019-02-10T18:12:55.385Z,8.52
2019-02-10T18:16:37.550Z,8.01
2019-02-10T18:19:55.763Z,7.11
2019-02-10T18:23:18.602Z,6.44
2019-02-10T18:26:40.860Z,5.95
2019-02-10T18:29:58.505Z,5.62
2019-02-10T18:33:22.936Z,5.41
2019-02-10T18:36:46.662Z,5.26
2019-02-10T18:40:10.954Z,5.01
2019-02-10T18:43:41.356Z,4.96
2019-02-10T18:46:59.526Z,4.63
2019-02-10T18:50:28.202Z,4.33
2019-02-10T18:54:13.971Z,4.18
2019-02-10T18:57:36.547Z,4.20
2019-02-10T19:01:18.893Z,4.23
2019-02-10T19:04:39.761Z,4.18
2019-02-10T19:08:05.179Z,4.11
2019-02-10T19:11:47.407Z,3.98
2019-02-10T19:15:02.699Z,4.00
2019-02-10T19:18:30.997Z,3.95
2019-02-10T19:22:04.239Z,3.98
2019-02-10T19:25:24.009Z,3.89
2019-02-10T19:28:54.201Z,3.91
2019-02-10T19:32:13.029Z,3.81
2019-02-10T19:35:33.115Z,3.81
2019-02-10T19:39:07.637Z,3.84
2019-02-10T19:42:32.240Z,3.74
2019-02-10T19:45:55.223Z,3.78
2019-02-10T19:49:21.121Z,3.79
2019-02-10T19:52:51.909Z,3.84
2019-02-10T19:56:11.871Z,3.76
2019-02-10T19:59:37.407Z,3.79
2019-02-10T20:02:52.669Z,3.90
2019-02-10T20:06:21.599Z,3.90
2019-02-10T20:09:42.231Z,3.78
2019-02-10T20:13:08.742Z,3.85
2019-02-10T20:16:24.001Z,3.83
2019-02-10T20:20:00.259Z,3.80
2019-02-10T20:23:27.324Z,3.82
2019-02-10T20:26:53.157Z,3.83
2019-02-10T20:30:11.535Z,3.80
2019-02-10T20:33:38.858Z,3.71
2019-02-10T20:37:10.186Z,3.63
2019-02-10T20:40:32.515Z,3.64
2019-02-10T20:43:48.125Z,3.69
2019-02-10T20:47:30.451Z,3.66
2019-02-10T20:51:03.755Z,3.77
2019-02-10T20:54:33.511Z,3.75
2019-02-10T20:58:06.900Z,3.81
2019-02-10T21:01:34.391Z,3.91
2019-02-10T21:04:53.638Z,3.75
2019-02-10T21:08:27.256Z,3.70
2019-02-10T21:11:45.082Z,3.70
2019-02-10T21:15:24.400Z,3.51
2019-02-10T21:18:50.343Z,3.42
2019-02-10T21:22:04.030Z,3.35
2019-02-10T21:25:23.377Z,3.39
2019-02-10T21:28:56.761Z,3.28
2019-02-10T21:32:12.537Z,3.28
2019-02-10T21:35:26.191Z,3.25
2019-02-10T21:38:44.915Z,3.22
2019-02-10T21:42:16.318Z,3.20
2019-02-10T21:45:33.237Z,3.20
2019-02-10T21:48:50.811Z,3.22
2019-02-10T21:51:58.855Z,3.37
2019-02-10T21:55:07.192Z,3.39
2019-02-10T21:58:14.521Z,3.38
2019-02-10T22:01:21.782Z,3.56
2019-02-10T22:04:29.374Z,3.65
2019-02-10T22:07:37.567Z,3.59
2019-02-10T22:10:45.572Z,3.61
2019-02-10T22:13:52.769Z,3.57
2019-02-10T22:17:00.661Z,3.54
2019-02-10T22:20:10.277Z,3.65
2019-02-10T22:23:17.777Z,3.60
2019-02-10T22:26:25.267Z,3.60
2019-02-10T22:29:32.795Z,3.66
2019-02-10T22:32:40.397Z,3.69
2019-02-10T22:35:47.545Z,3.72
2019-02-10T22:38:55.043Z,3.70
2019-02-10T22:42:02.318Z,3.67
2019-02-10T22:45:10.258Z,3.72
2019-02-10T22:48:17.837Z,3.72
2019-02-10T22:51:25.254Z,3.71
2019-02-10T22:54:32.887Z,3.82
2019-02-10T22:57:41.240Z,3.78
2019-02-10T23:01:01.394Z,3.92
2019-02-10T23:04:08.573Z,3.90
2019-02-10T23:07:16.170Z,3.91
2019-02-10T23:10:23.587Z,3.95
2019-02-10T23:13:30.941Z,3.90
2019-02-10T23:16:38.349Z,3.74
2019-02-10T23:19:45.743Z,3.73
2019-02-10T23:22:53.260Z,3.79
2019-02-10T23:26:00.416Z,3.77
2019-02-10T23:29:08.130Z,3.84
2019-02-10T23:32:15.329Z,3.81
2019-02-10T23:35:22.716Z,3.81
2019-02-10T23:38:30.511Z,3.75
2019-02-10T23:41:37.674Z,3.75
2019-02-10T23:44:44.839Z,3.74
2019-02-10T23:47:52.386Z,3.72
2019-02-10T23:50:59.889Z,3.74
2019-02-10T23:54:07.058Z,3.68
2019-02-10T23:57:14.411Z,3.64
